sensor_id;sensor_type;location;lat;lon;timestamp;pressure;altitude;pressure_sealevel;temperature;humidity
49461;BME280;35355;49.198;-0.368;2023-02-20T00:01:21;102468.59;;;7.90;81.20
49461;BME280;35355;49.198;-0.368;2023-02-20T00:03:46;102479.00;;;7.86;81.42
49461;BME280;35355;49.198;-0.368;2023-02-20T00:06:11;102470.44;;;7.83;81.49
49461;BME280;35355;49.198;-0.368;2023-02-20T00:08:37;102466.84;;;7.82;81.59
49461;BME280;35355;49.198;-0.368;2023-02-20T00:11:02;102476.50;;;7.85;81.67
49461;BME280;35355;49.198;-0.368;2023-02-20T00:13:28;102482.38;;;7.88;81.78
49461;BME280;35355;49.198;-0.368;2023-02-20T00:15:54;102484.03;;;7.89;81.96
49461;BME280;35355;49.198;-0.368;2023-02-20T00:18:19;102482.38;;;7.88;81.54
49461;BME280;35355;49.198;-0.368;2023-02-20T00:20:44;102480.69;;;7.87;81.59
49461;BME280;35355;49.198;-0.368;2023-02-20T00:23:10;102480.69;;;7.87;81.43
49461;BME280;35355;49.198;-0.368;2023-02-20T00:25:35;102488.22;;;7.85;81.67
49461;BME280;35355;49.198;-0.368;2023-02-20T00:28:01;102477.72;;;7.82;81.89
49461;BME280;35355;49.198;-0.368;2023-02-20T00:30:26;102479.00;;;7.80;81.84
49461;BME280;35355;49.198;-0.368;2023-02-20T00:32:53;102492.38;;;7.81;81.85
49461;BME280;35355;49.198;-0.368;2023-02-20T00:35:19;102485.22;;;7.73;81.69
49461;BME280;35355;49.198;-0.368;2023-02-20T00:37:48;102489.81;;;7.73;81.45
49461;BME280;35355;49.198;-0.368;2023-02-20T00:40:15;102479.34;;;7.70;81.86
49461;BME280;35355;49.198;-0.368;2023-02-20T00:42:40;102480.38;;;7.69;81.49
49461;BME280;35355;49.198;-0.368;2023-02-20T00:45:07;102478.50;;;7.69;81.90
49461;BME280;35355;49.198;-0.368;2023-02-20T00:47:33;102481.66;;;7.73;81.64
49461;BME280;35355;49.198;-0.368;2023-02-20T00:49:58;102481.25;;;7.76;82.01
49461;BME280;35355;49.198;-0.368;2023-02-20T00:52:24;102471.44;;;7.75;81.99
49461;BME280;35355;49.198;-0.368;2023-02-20T00:54:49;102470.78;;;7.73;81.57
49461;BME280;35355;49.198;-0.368;2023-02-20T00:57:15;102473.50;;;7.73;81.55
49461;BME280;35355;49.198;-0.368;2023-02-20T00:59:40;102466.38;;;7.72;81.54
49461;BME280;35355;49.198;-0.368;2023-02-20T01:02:06;102465.56;;;7.71;81.56
49461;BME280;35355;49.198;-0.368;2023-02-20T01:04:31;102467.44;;;7.71;82.09
49461;BME280;35355;49.198;-0.368;2023-02-20T01:06:57;102463.66;;;7.72;82.00
49461;BME280;35355;49.198;-0.368;2023-02-20T01:09:22;102450.47;;;7.69;81.43
49461;BME280;35355;49.198;-0.368;2023-02-20T01:11:48;102445.03;;;7.69;81.80
49461;BME280;35355;49.198;-0.368;2023-02-20T01:14:13;102432.09;;;7.71;81.83
49461;BME280;35355;49.198;-0.368;2023-02-20T01:16:50;102443.84;;;7.78;81.96
49461;BME280;35355;49.198;-0.368;2023-02-20T01:19:16;102449.28;;;7.78;81.81
49461;BME280;35355;49.198;-0.368;2023-02-20T01:21:42;102452.00;;;7.78;81.67
49461;BME280;35355;49.198;-0.368;2023-02-20T01:24:08;102450.13;;;7.79;81.70
49461;BME280;35355;49.198;-0.368;2023-02-20T01:26:33;102440.72;;;7.81;82.00
49461;BME280;35355;49.198;-0.368;2023-02-20T01:29:00;102437.59;;;7.84;82.19
49461;BME280;35355;49.198;-0.368;2023-02-20T01:31:26;102440.53;;;7.89;81.83
49461;BME280;35355;49.198;-0.368;2023-02-20T01:33:51;102444.34;;;7.88;81.70
49461;BME280;35355;49.198;-0.368;2023-02-20T01:36:17;102434.69;;;7.86;81.81
49461;BME280;35355;49.198;-0.368;2023-02-20T01:38:42;102427.97;;;7.82;82.10
49461;BME280;35355;49.198;-0.368;2023-02-20T01:41:09;102428.78;;;7.82;81.51
49461;BME280;35355;49.198;-0.368;2023-02-20T01:43:35;102421.28;;;7.84;81.62
49461;BME280;35355;49.198;-0.368;2023-02-20T01:48:48;102422.97;;;7.85;81.29
49461;BME280;35355;49.198;-0.368;2023-02-20T01:51:14;102423.81;;;7.86;81.94
49461;BME280;35355;49.198;-0.368;2023-02-20T01:53:40;102420.88;;;7.87;81.56
49461;BME280;35355;49.198;-0.368;2023-02-20T01:56:07;102415.84;;;7.84;81.87
49461;BME280;35355;49.198;-0.368;2023-02-20T01:58:44;102416.69;;;7.85;81.41
49461;BME280;35355;49.198;-0.368;2023-02-20T02:01:11;102414.19;;;7.83;81.67
49461;BME280;35355;49.198;-0.368;2023-02-20T02:03:40;102414.59;;;7.80;81.72
49461;BME280;35355;49.198;-0.368;2023-02-20T02:06:08;102409.16;;;7.80;81.67
49461;BME280;35355;49.198;-0.368;2023-02-20T02:08:36;102413.34;;;7.83;81.65
49461;BME280;35355;49.198;-0.368;2023-02-20T02:11:05;102417.94;;;7.82;81.28
49461;BME280;35355;49.198;-0.368;2023-02-20T02:13:33;102414.59;;;7.80;81.78
49461;BME280;35355;49.198;-0.368;2023-02-20T02:19:06;102399.72;;;7.76;81.70
49461;BME280;35355;49.198;-0.368;2023-02-20T02:35:39;102389.44;;;7.65;81.84
49461;BME280;35355;49.198;-0.368;2023-02-20T02:38:25;102386.91;;;7.63;81.66
49461;BME280;35355;49.198;-0.368;2023-02-20T02:41:10;102384.00;;;7.65;81.53
49461;BME280;35355;49.198;-0.368;2023-02-20T02:46:51;102377.53;;;7.72;81.39
49461;BME280;35355;49.198;-0.368;2023-02-20T02:49:25;102373.13;;;7.71;81.61
49461;BME280;35355;49.198;-0.368;2023-02-20T02:51:54;102370.22;;;7.73;81.58
49461;BME280;35355;49.198;-0.368;2023-02-20T02:54:22;102371.03;;;7.73;81.45
49461;BME280;35355;49.198;-0.368;2023-02-20T02:56:52;102370.66;;;7.77;81.67
49461;BME280;35355;49.198;-0.368;2023-02-20T02:59:29;102360.00;;;7.75;81.58
49461;BME280;35355;49.198;-0.368;2023-02-20T03:02:02;102349.72;;;7.70;81.14
49461;BME280;35355;49.198;-0.368;2023-02-20T03:04:31;102348.47;;;7.66;81.57
49461;BME280;35355;49.198;-0.368;2023-02-20T03:07:02;102343.44;;;7.63;81.69
49461;BME280;35355;49.198;-0.368;2023-02-20T03:09:36;102337.75;;;7.58;81.53
49461;BME280;35355;49.198;-0.368;2023-02-20T03:12:04;102332.53;;;7.57;81.88
49461;BME280;35355;49.198;-0.368;2023-02-20T03:14:49;102338.78;;;7.57;81.52
49461;BME280;35355;49.198;-0.368;2023-02-20T03:17:39;102331.09;;;7.61;81.38
49461;BME280;35355;49.198;-0.368;2023-02-20T03:20:10;102329.66;;;7.65;81.42
49461;BME280;35355;49.198;-0.368;2023-02-20T03:22:53;102333.81;;;7.67;81.77
49461;BME280;35355;49.198;-0.368;2023-02-20T03:25:27;102324.19;;;7.65;81.75
49461;BME280;35355;49.198;-0.368;2023-02-20T03:30:29;102320.84;;;7.63;81.53
49461;BME280;35355;49.198;-0.368;2023-02-20T03:33:08;102322.72;;;7.62;81.50
49461;BME280;35355;49.198;-0.368;2023-02-20T03:35:54;102326.28;;;7.63;81.88
49461;BME280;35355;49.198;-0.368;2023-02-20T03:38:41;102310.16;;;7.61;81.39
49461;BME280;35355;49.198;-0.368;2023-02-20T03:41:28;102312.06;;;7.61;82.17
49461;BME280;35355;49.198;-0.368;2023-02-20T03:44:14;102318.31;;;7.61;81.50
49461;BME280;35355;49.198;-0.368;2023-02-20T03:46:43;102308.09;;;7.63;81.72
49461;BME280;35355;49.198;-0.368;2023-02-20T03:49:12;102311.66;;;7.64;81.48
49461;BME280;35355;49.198;-0.368;2023-02-20T03:51:56;102307.44;;;7.61;81.51
49461;BME280;35355;49.198;-0.368;2023-02-20T03:54:22;102306.81;;;7.59;81.33
49461;BME280;35355;49.198;-0.368;2023-02-20T03:56:52;102306.63;;;7.61;81.73
49461;BME280;35355;49.198;-0.368;2023-02-20T03:59:26;102306.63;;;7.61;81.38
49461;BME280;35355;49.198;-0.368;2023-02-20T04:02:01;102309.97;;;7.63;82.01
49461;BME280;35355;49.198;-0.368;2023-02-20T04:04:29;102308.69;;;7.59;81.35
49461;BME280;35355;49.198;-0.368;2023-02-20T04:06:58;102305.34;;;7.57;81.25
49461;BME280;35355;49.198;-0.368;2023-02-20T04:09:29;102303.47;;;7.57;81.75
49461;BME280;35355;49.198;-0.368;2023-02-20T04:12:03;102298.47;;;7.61;82.00
49461;BME280;35355;49.198;-0.368;2023-02-20T04:14:33;102295.09;;;7.59;82.01
49461;BME280;35355;49.198;-0.368;2023-02-20T04:17:03;102302.66;;;7.63;82.03
49461;BME280;35355;49.198;-0.368;2023-02-20T04:19:31;102307.25;;;7.63;82.05
49461;BME280;35355;49.198;-0.368;2023-02-20T04:22:05;102305.81;;;7.67;81.43
49461;BME280;35355;49.198;-0.368;2023-02-20T04:27:12;102288.03;;;7.64;81.74
49461;BME280;35355;49.198;-0.368;2023-02-20T04:29:38;102289.91;;;7.64;81.99
49461;BME280;35355;49.198;-0.368;2023-02-20T04:32:04;102294.94;;;7.67;81.86
49461;BME280;35355;49.198;-0.368;2023-02-20T04:34:29;102293.25;;;7.66;81.59
49461;BME280;35355;49.198;-0.368;2023-02-20T04:37:10;102296.22;;;7.71;81.33
49461;BME280;35355;49.198;-0.368;2023-02-20T04:39:36;102286.78;;;7.67;81.63
49461;BME280;35355;49.198;-0.368;2023-02-20T04:42:02;102291.38;;;7.66;81.80
49461;BME280;35355;49.198;-0.368;2023-02-20T04:44:27;102293.66;;;7.63;81.72
49461;BME280;35355;49.198;-0.368;2023-02-20T04:46:57;102291.34;;;7.60;81.94
49461;BME280;35355;49.198;-0.368;2023-02-20T04:49:22;102276.50;;;7.55;81.49
49461;BME280;35355;49.198;-0.368;2023-02-20T04:51:48;102279.41;;;7.54;81.66
49461;BME280;35355;49.198;-0.368;2023-02-20T04:54:14;102277.97;;;7.51;82.01
49461;BME280;35355;49.198;-0.368;2023-02-20T04:56:39;102279.00;;;7.50;81.76
49461;BME280;35355;49.198;-0.368;2023-02-20T04:59:04;102279.41;;;7.54;82.55
49461;BME280;35355;49.198;-0.368;2023-02-20T05:01:30;102272.75;;;7.57;82.06
49461;BME280;35355;49.198;-0.368;2023-02-20T05:03:55;102267.91;;;7.52;82.06
49461;BME280;35355;49.198;-0.368;2023-02-20T05:06:21;102281.06;;;7.48;82.05
49461;BME280;35355;49.198;-0.368;2023-02-20T05:08:46;102274.19;;;7.46;82.02
49461;BME280;35355;49.198;-0.368;2023-02-20T05:11:12;102270.38;;;7.47;82.27
49461;BME280;35355;49.198;-0.368;2023-02-20T05:13:37;102264.97;;;7.47;81.72
49461;BME280;35355;49.198;-0.368;2023-02-20T05:16:03;102266.66;;;7.48;82.19
49461;BME280;35355;49.198;-0.368;2023-02-20T05:18:29;102273.97;;;7.47;82.36
49461;BME280;35355;49.198;-0.368;2023-02-20T05:20:54;102270.59;;;7.45;82.07
49461;BME280;35355;49.198;-0.368;2023-02-20T05:23:39;102275.63;;;7.42;81.89
49461;BME280;35355;49.198;-0.368;2023-02-20T05:26:08;102276.44;;;7.42;82.24
49461;BME280;35355;49.198;-0.368;2023-02-20T05:28:34;102285.88;;;7.46;82.37
49461;BME280;35355;49.198;-0.368;2023-02-20T05:52:26;102286.97;;;6.82;81.04
49461;BME280;35355;49.198;-0.368;2023-02-20T05:54:51;102288.66;;;6.83;82.08
49461;BME280;35355;49.198;-0.368;2023-02-20T05:57:16;102289.13;;;6.87;82.50
49461;BME280;35355;49.198;-0.368;2023-02-20T05:59:42;102303.53;;;6.94;82.64
49461;BME280;35355;49.198;-0.368;2023-02-20T06:02:07;102299.84;;;7.01;82.19
49461;BME280;35355;49.198;-0.368;2023-02-20T06:04:32;102307.00;;;7.09;82.52
49461;BME280;35355;49.198;-0.368;2023-02-20T06:06:58;102302.19;;;7.11;82.61
49461;BME280;35355;49.198;-0.368;2023-02-20T06:09:23;102295.94;;;7.17;82.22
49461;BME280;35355;49.198;-0.368;2023-02-20T06:11:54;102290.16;;;7.20;82.72
49461;BME280;35355;49.198;-0.368;2023-02-20T06:14:22;102290.38;;;7.26;82.59
49461;BME280;35355;49.198;-0.368;2023-02-20T06:16:48;102299.78;;;7.30;82.91
49461;BME280;35355;49.198;-0.368;2023-02-20T06:19:21;102304.41;;;7.36;82.26
49461;BME280;35355;49.198;-0.368;2023-02-20T06:21:48;102305.69;;;7.40;82.52
49461;BME280;35355;49.198;-0.368;2023-02-20T06:24:15;102306.31;;;7.42;82.61
49461;BME280;35355;49.198;-0.368;2023-02-20T06:26:41;102303.59;;;7.42;82.38
49461;BME280;35355;49.198;-0.368;2023-02-20T06:29:07;102302.38;;;7.45;82.66
49461;BME280;35355;49.198;-0.368;2023-02-20T06:31:32;102306.56;;;7.47;82.71
49461;BME280;35355;49.198;-0.368;2023-02-20T06:33:58;102305.50;;;7.48;82.68
49461;BME280;35355;49.198;-0.368;2023-02-20T06:36:26;102304.47;;;7.49;82.54
49461;BME280;35355;49.198;-0.368;2023-02-20T06:38:52;102297.34;;;7.48;82.58
49461;BME280;35355;49.198;-0.368;2023-02-20T06:41:18;102305.09;;;7.45;82.30
49461;BME280;35355;49.198;-0.368;2023-02-20T06:43:43;102305.50;;;7.42;82.35
49461;BME280;35355;49.198;-0.368;2023-02-20T06:46:09;102309.03;;;7.42;82.10
49461;BME280;35355;49.198;-0.368;2023-02-20T06:48:42;102307.81;;;7.45;82.66
49461;BME280;35355;49.198;-0.368;2023-02-20T06:51:08;102300.06;;;7.42;82.27
49461;BME280;35355;49.198;-0.368;2023-02-20T06:53:33;102304.66;;;7.41;82.54
49461;BME280;35355;49.198;-0.368;2023-02-20T06:56:05;102298.59;;;7.39;82.70
49461;BME280;35355;49.198;-0.368;2023-02-20T06:58:30;102302.31;;;7.38;82.55
49461;BME280;35355;49.198;-0.368;2023-02-20T07:00:56;102309.84;;;7.36;82.98
49461;BME280;35355;49.198;-0.368;2023-02-20T07:03:23;102311.53;;;7.37;82.56
49461;BME280;35355;49.198;-0.368;2023-02-20T07:05:48;102323.84;;;7.40;83.07
49461;BME280;35355;49.198;-0.368;2023-02-20T07:08:14;102316.97;;;7.37;82.97
49461;BME280;35355;49.198;-0.368;2023-02-20T07:10:39;102318.22;;;7.34;82.83
49461;BME280;35355;49.198;-0.368;2023-02-20T07:13:04;102324.88;;;7.32;82.16
49461;BME280;35355;49.198;-0.368;2023-02-20T07:15:30;102323.59;;;7.28;82.40
49461;BME280;35355;49.198;-0.368;2023-02-20T07:17:55;102324.19;;;7.23;82.29
49461;BME280;35355;49.198;-0.368;2023-02-20T07:20:21;102325.06;;;7.24;82.22
49461;BME280;35355;49.198;-0.368;2023-02-20T07:22:50;102328.59;;;7.24;83.02
49461;BME280;35355;49.198;-0.368;2023-02-20T07:25:16;102330.06;;;7.27;82.67
49461;BME280;35355;49.198;-0.368;2023-02-20T07:27:41;102333.00;;;7.32;82.49
49461;BME280;35355;49.198;-0.368;2023-02-20T07:30:06;102334.69;;;7.33;82.54
49461;BME280;35355;49.198;-0.368;2023-02-20T07:32:32;102337.00;;;7.36;82.34
49461;BME280;35355;49.198;-0.368;2023-02-20T07:34:57;102326.16;;;7.36;82.52
49461;BME280;35355;49.198;-0.368;2023-02-20T07:37:23;102326.34;;;7.34;82.63
49461;BME280;35355;49.198;-0.368;2023-02-20T07:39:48;102334.31;;;7.36;82.24
49461;BME280;35355;49.198;-0.368;2023-02-20T07:42:16;102333.50;;;7.42;82.30
49461;BME280;35355;49.198;-0.368;2023-02-20T07:44:42;102332.88;;;7.47;82.71
49461;BME280;35355;49.198;-0.368;2023-02-20T07:47:08;102349.63;;;7.50;82.62
49461;BME280;35355;49.198;-0.368;2023-02-20T07:49:34;102345.47;;;7.54;82.75
49461;BME280;35355;49.198;-0.368;2023-02-20T07:51:59;102337.97;;;7.57;82.62
49461;BME280;35355;49.198;-0.368;2023-02-20T07:54:24;102338.97;;;7.55;82.22
49461;BME280;35355;49.198;-0.368;2023-02-20T07:56:52;102349.03;;;7.62;82.37
49461;BME280;35355;49.198;-0.368;2023-02-20T07:59:18;102339.84;;;7.63;82.70
49461;BME280;35355;49.198;-0.368;2023-02-20T08:01:43;102338.00;;;7.70;82.51
49461;BME280;35355;49.198;-0.368;2023-02-20T08:04:08;102341.56;;;7.70;82.35
49461;BME280;35355;49.198;-0.368;2023-02-20T08:06:34;102341.34;;;7.72;82.21
49461;BME280;35355;49.198;-0.368;2023-02-20T08:08:59;102345.13;;;7.71;82.39
49461;BME280;35355;49.198;-0.368;2023-02-20T08:11:25;102360.16;;;7.73;82.01
49461;BME280;35355;49.198;-0.368;2023-02-20T08:13:50;102358.94;;;7.76;81.79
49461;BME280;35355;49.198;-0.368;2023-02-20T08:16:16;102357.66;;;7.72;81.84
49461;BME280;35355;49.198;-0.368;2023-02-20T08:18:41;102346.38;;;7.68;82.08
49461;BME280;35355;49.198;-0.368;2023-02-20T08:21:07;102345.53;;;7.68;81.98
49461;BME280;35355;49.198;-0.368;2023-02-20T08:23:32;102350.56;;;7.71;81.68
49461;BME280;35355;49.198;-0.368;2023-02-20T08:25:57;102350.78;;;7.76;81.82
49461;BME280;35355;49.198;-0.368;2023-02-20T08:28:24;102354.78;;;7.80;82.03
49461;BME280;35355;49.198;-0.368;2023-02-20T08:30:49;102354.38;;;7.83;82.27
49461;BME280;35355;49.198;-0.368;2023-02-20T08:33:15;102351.03;;;7.88;81.55
49461;BME280;35355;49.198;-0.368;2023-02-20T08:35:40;102354.41;;;7.90;81.83
49461;BME280;35355;49.198;-0.368;2023-02-20T08:38:20;102352.94;;;7.87;81.67
49461;BME280;35355;49.198;-0.368;2023-02-20T08:40:46;102349.38;;;7.87;81.93
49461;BME280;35355;49.198;-0.368;2023-02-20T08:43:12;102341.84;;;7.89;81.92
49461;BME280;35355;49.198;-0.368;2023-02-20T08:45:37;102348.56;;;7.93;81.76
49461;BME280;35355;49.198;-0.368;2023-02-20T08:48:02;102349.19;;;7.95;81.62
49461;BME280;35355;49.198;-0.368;2023-02-20T08:50:28;102346.47;;;7.95;81.58
49461;BME280;35355;49.198;-0.368;2023-02-20T08:52:53;102346.91;;;7.99;81.22
49461;BME280;35355;49.198;-0.368;2023-02-20T08:55:18;102344.41;;;8.04;81.59
49461;BME280;35355;49.198;-0.368;2023-02-20T08:57:44;102356.53;;;8.08;81.17
49461;BME280;35355;49.198;-0.368;2023-02-20T09:00:10;102354.25;;;8.12;81.47
49461;BME280;35355;49.198;-0.368;2023-02-20T09:02:35;102355.31;;;8.17;81.71
49461;BME280;35355;49.198;-0.368;2023-02-20T09:05:01;102350.09;;;8.22;81.39
49461;BME280;35355;49.198;-0.368;2023-02-20T09:07:26;102358.25;;;8.29;81.41
49461;BME280;35355;49.198;-0.368;2023-02-20T09:09:51;102357.00;;;8.32;81.27
49461;BME280;35355;49.198;-0.368;2023-02-20T09:12:17;102350.94;;;8.36;81.22
49461;BME280;35355;49.198;-0.368;2023-02-20T09:14:42;102355.97;;;8.39;81.25
49461;BME280;35355;49.198;-0.368;2023-02-20T09:17:08;102359.97;;;8.43;80.86
49461;BME280;35355;49.198;-0.368;2023-02-20T09:19:33;102359.78;;;8.45;80.45
49461;BME280;35355;49.198;-0.368;2023-02-20T09:22:00;102354.97;;;8.47;80.76
49461;BME280;35355;49.198;-0.368;2023-02-20T09:24:26;102357.25;;;8.50;80.63
49461;BME280;35355;49.198;-0.368;2023-02-20T09:26:56;102348.47;;;8.48;80.72
49461;BME280;35355;49.198;-0.368;2023-02-20T09:29:21;102353.91;;;8.48;80.56
49461;BME280;35355;49.198;-0.368;2023-02-20T09:31:47;102349.09;;;8.50;80.84
49461;BME280;35355;49.198;-0.368;2023-02-20T09:34:12;102358.31;;;8.56;80.61
49461;BME280;35355;49.198;-0.368;2023-02-20T09:36:37;102352.44;;;8.59;80.74
49461;BME280;35355;49.198;-0.368;2023-02-20T09:39:03;102351.22;;;8.62;80.64
49461;BME280;35355;49.198;-0.368;2023-02-20T09:46:44;102352.25;;;8.67;80.54
49461;BME280;35355;49.198;-0.368;2023-02-20T09:49:17;102356.88;;;8.67;80.34
49461;BME280;35355;49.198;-0.368;2023-02-20T09:51:49;102348.50;;;8.68;80.52
49461;BME280;35355;49.198;-0.368;2023-02-20T09:54:26;102353.09;;;8.68;80.60
49461;BME280;35355;49.198;-0.368;2023-02-20T09:57:00;102353.31;;;8.73;80.49
49461;BME280;35355;49.198;-0.368;2023-02-20T09:59:37;102356.66;;;8.75;80.46
49461;BME280;35355;49.198;-0.368;2023-02-20T10:04:43;102354.16;;;8.67;80.17
49461;BME280;35355;49.198;-0.368;2023-02-20T10:09:47;102361.25;;;8.54;79.99
49461;BME280;35355;49.198;-0.368;2023-02-20T10:12:18;102362.94;;;8.55;80.17
49461;BME280;35355;49.198;-0.368;2023-02-20T10:22:53;102362.75;;;8.64;80.51
49461;BME280;35355;49.198;-0.368;2023-02-20T10:25:27;102364.41;;;8.65;80.18
49461;BME280;35355;49.198;-0.368;2023-02-20T10:28:08;102365.03;;;8.67;80.16
49461;BME280;35355;49.198;-0.368;2023-02-20T10:30:39;102355.41;;;8.64;80.03
49461;BME280;35355;49.198;-0.368;2023-02-20T10:33:23;102359.38;;;8.68;80.06
49461;BME280;35355;49.198;-0.368;2023-02-20T10:36:07;102350.38;;;8.68;80.00
49461;BME280;35355;49.198;-0.368;2023-02-20T10:39:00;102354.34;;;8.72;80.17
49461;BME280;35355;49.198;-0.368;2023-02-20T10:41:50;102353.94;;;8.82;80.06
49461;BME280;35355;49.198;-0.368;2023-02-20T10:52:13;102352.00;;;9.09;79.54
49461;BME280;35355;49.198;-0.368;2023-02-20T10:54:44;102346.56;;;9.16;79.11
49461;BME280;35355;49.198;-0.368;2023-02-20T10:57:46;102346.75;;;9.21;79.16
49461;BME280;35355;49.198;-0.368;2023-02-20T11:00:37;102340.03;;;9.23;79.00
49461;BME280;35355;49.198;-0.368;2023-02-20T11:03:08;102329.31;;;9.28;79.13
49461;BME280;35355;49.198;-0.368;2023-02-20T11:05:42;102321.75;;;9.37;78.93
49461;BME280;35355;49.198;-0.368;2023-02-20T11:08:09;102319.66;;;9.39;78.62
49461;BME280;35355;49.198;-0.368;2023-02-20T11:10:34;102325.94;;;9.40;78.24
49461;BME280;35355;49.198;-0.368;2023-02-20T11:13:00;102322.41;;;9.39;78.39
49461;BME280;35355;49.198;-0.368;2023-02-20T11:15:31;102323.84;;;9.42;78.47
49461;BME280;35355;49.198;-0.368;2023-02-20T11:17:58;102326.78;;;9.47;78.36
49461;BME280;35355;49.198;-0.368;2023-02-20T11:26:28;102309.03;;;9.70;78.75
49461;BME280;35355;49.198;-0.368;2023-02-20T11:31:31;102298.88;;;9.90;78.12
49461;BME280;35355;49.198;-0.368;2023-02-20T11:34:00;102297.59;;;9.99;78.05
49461;BME280;35355;49.198;-0.368;2023-02-20T11:36:27;102292.47;;;10.10;77.27
49461;BME280;35355;49.198;-0.368;2023-02-20T11:39:00;102287.34;;;10.20;77.16
49461;BME280;35355;49.198;-0.368;2023-02-20T11:41:31;102289.59;;;10.30;77.33
49461;BME280;35355;49.198;-0.368;2023-02-20T11:46:37;102286.50;;;10.51;76.46
49461;BME280;35355;49.198;-0.368;2023-02-20T11:49:04;102284.94;;;10.62;76.06
49461;BME280;35355;49.198;-0.368;2023-02-20T11:51:42;102276.69;;;10.69;76.29
49461;BME280;35355;49.198;-0.368;2023-02-20T11:54:09;102279.34;;;10.76;76.25
49461;BME280;35355;49.198;-0.368;2023-02-20T11:56:35;102276.78;;;10.81;75.67
49461;BME280;35355;49.198;-0.368;2023-02-20T11:59:34;102273.06;;;10.75;75.98
49461;BME280;35355;49.198;-0.368;2023-02-20T12:02:24;102265.81;;;10.62;75.85
49461;BME280;35355;49.198;-0.368;2023-02-20T12:05:09;102265.34;;;10.47;75.98
49461;BME280;35355;49.198;-0.368;2023-02-20T12:13:06;102248.03;;;10.03;76.28
49461;BME280;35355;49.198;-0.368;2023-02-20T12:15:31;102230.38;;;10.05;76.42
49461;BME280;35355;49.198;-0.368;2023-02-20T12:18:28;102239.31;;;10.19;77.20
49461;BME280;35355;49.198;-0.368;2023-02-20T12:23:45;102227.06;;;10.53;76.21
49461;BME280;35355;49.198;-0.368;2023-02-20T12:37:28;102196.16;;;10.34;75.92
49461;BME280;35355;49.198;-0.368;2023-02-20T12:43:25;102189.00;;;10.08;76.40
49461;BME280;35355;49.198;-0.368;2023-02-20T12:46:30;102176.31;;;9.95;76.49
49461;BME280;35355;49.198;-0.368;2023-02-20T12:51:59;102177.31;;;9.76;77.07
49461;BME280;35355;49.198;-0.368;2023-02-20T12:54:39;102171.06;;;9.69;76.75
49461;BME280;35355;49.198;-0.368;2023-02-20T12:57:22;102169.03;;;9.57;76.79
49461;BME280;35355;49.198;-0.368;2023-02-20T13:00:00;102159.47;;;9.48;77.06
49461;BME280;35355;49.198;-0.368;2023-02-20T13:02:39;102150.28;;;9.42;77.29
49461;BME280;35355;49.198;-0.368;2023-02-20T13:05:10;102149.84;;;9.39;77.08
49461;BME280;35355;49.198;-0.368;2023-02-20T13:07:42;102140.25;;;9.36;77.04
49461;BME280;35355;49.198;-0.368;2023-02-20T13:10:16;102135.25;;;9.33;76.96
49461;BME280;35355;49.198;-0.368;2023-02-20T13:12:44;102122.66;;;9.32;77.44
49461;BME280;35355;49.198;-0.368;2023-02-20T13:20:44;102110.06;;;9.38;77.47
49461;BME280;35355;49.198;-0.368;2023-02-20T13:25:44;102096.88;;;9.35;77.40
49461;BME280;35355;49.198;-0.368;2023-02-20T13:30:35;102089.69;;;9.40;77.15
49461;BME280;35355;49.198;-0.368;2023-02-20T13:35:53;102082.81;;;9.38;78.14
49461;BME280;35355;49.198;-0.368;2023-02-20T13:38:21;102081.13;;;9.37;77.74
49461;BME280;35355;49.198;-0.368;2023-02-20T13:41:06;102081.28;;;9.42;77.75
49461;BME280;35355;49.198;-0.368;2023-02-20T13:43:38;102083.19;;;9.41;77.66
49461;BME280;35355;49.198;-0.368;2023-02-20T13:53:59;102057.16;;;9.45;77.67
49461;BME280;35355;49.198;-0.368;2023-02-20T13:59:09;102043.91;;;9.49;77.24
49461;BME280;35355;49.198;-0.368;2023-02-20T14:21:24;102010.25;;;8.80;77.89
49461;BME280;35355;49.198;-0.368;2023-02-20T14:23:52;102012.75;;;8.81;78.04
49461;BME280;35355;49.198;-0.368;2023-02-20T14:28:50;102005.56;;;8.93;78.08
49461;BME280;35355;49.198;-0.368;2023-02-20T14:33:46;102000.41;;;9.10;78.53
49461;BME280;35355;49.198;-0.368;2023-02-20T14:39:02;101997.78;;;9.29;78.39
49461;BME280;35355;49.198;-0.368;2023-02-20T14:41:30;101988.31;;;9.32;78.07
49461;BME280;35355;49.198;-0.368;2023-02-20T14:44:00;101991.81;;;9.39;77.97
49461;BME280;35355;49.198;-0.368;2023-02-20T14:46:31;101981.69;;;9.46;78.11
49461;BME280;35355;49.198;-0.368;2023-02-20T14:49:15;101983.50;;;9.52;78.23
49461;BME280;35355;49.198;-0.368;2023-02-20T14:51:41;101968.59;;;9.55;78.03
49461;BME280;35355;49.198;-0.368;2023-02-20T14:56:38;101962.00;;;9.62;77.85
49461;BME280;35355;49.198;-0.368;2023-02-20T14:59:33;101958.88;;;9.65;78.08
49461;BME280;35355;49.198;-0.368;2023-02-20T15:04:30;101946.88;;;9.66;77.58
49461;BME280;35355;49.198;-0.368;2023-02-20T15:07:04;101957.09;;;9.71;77.64
49461;BME280;35355;49.198;-0.368;2023-02-20T15:09:39;101956.88;;;9.73;77.77
49461;BME280;35355;49.198;-0.368;2023-02-20T15:12:05;101956.66;;;9.74;77.47
49461;BME280;35355;49.198;-0.368;2023-02-20T15:14:36;101958.09;;;9.77;77.53
49461;BME280;35355;49.198;-0.368;2023-02-20T15:19:40;101960.81;;;9.77;77.37
49461;BME280;35355;49.198;-0.368;2023-02-20T15:24:46;101941.16;;;9.75;77.47
49461;BME280;35355;49.198;-0.368;2023-02-20T15:27:16;101948.28;;;9.76;77.16
49461;BME280;35355;49.198;-0.368;2023-02-20T15:29:44;101943.66;;;9.76;77.32
49461;BME280;35355;49.198;-0.368;2023-02-20T15:34:38;101931.91;;;9.76;77.08
49461;BME280;35355;49.198;-0.368;2023-02-20T15:39:43;101933.34;;;9.78;77.44
49461;BME280;35355;49.198;-0.368;2023-02-20T15:42:12;101938.56;;;9.80;77.21
49461;BME280;35355;49.198;-0.368;2023-02-20T15:44:37;101939.63;;;9.79;76.97
49461;BME280;35355;49.198;-0.368;2023-02-20T15:47:03;101934.19;;;9.79;77.17
49461;BME280;35355;49.198;-0.368;2023-02-20T15:49:28;101925.38;;;9.77;77.14
49461;BME280;35355;49.198;-0.368;2023-02-20T15:51:54;101930.38;;;9.80;76.67
49461;BME280;35355;49.198;-0.368;2023-02-20T15:54:19;101922.19;;;9.80;76.93
49461;BME280;35355;49.198;-0.368;2023-02-20T15:56:45;101921.16;;;9.81;77.04
49461;BME280;35355;49.198;-0.368;2023-02-20T15:59:11;101924.31;;;9.78;76.48
49461;BME280;35355;49.198;-0.368;2023-02-20T16:01:38;101922.66;;;9.77;77.21